Time;durP1;ratioP1;P1;durP2;ratioP2;P2;SDS_P1;SDS_P2;PMS_P1;PMS_P2;Temp;Humidity;BMP_temperature;BMP_pressure;BME280_temperature;BME280_humidity;BME280_pressure;Samples;Min_cycle;Max_cycle;Signal;HPM_P1;HPM_P2
2021/12/23 00:00:19;;;;;;;226.52;82.90;;;;;;;;;;6198225;28;20454;-65
2021/12/23 00:03:39;;;;;;;199.75;80.88;;;;;;;;;;6203046;28;20050;-65
2021/12/23 00:06:41;;;;;;;192.07;77.05;;;;;;;;;;6200112;28;20115;-65
2021/12/23 00:12:48;;;;;;;206.38;81.35;;;;;;;;;;6198769;28;20631;-65
2021/12/23 00:19:01;;;;;;;294.58;109.97;;;;;;;;;;6200052;28;20061;-64
2021/12/23 00:25:23;;;;;;;207.05;77.60;;;;;;;;;;6196929;28;20535;-65
2021/12/23 00:28:24;;;;;;;189.70;70.63;;;;;;;;;;6200472;28;20081;-65
2021/12/23 00:31:25;;;;;;;167.23;66.80;;;;;;;;;;6199212;28;20049;-65
2021/12/23 00:34:26;;;;;;;160.63;61.45;;;;;;;;;;6200943;28;20038;-64
2021/12/23 00:37:35;;;;;;;164.93;61.40;;;;;;;;;;6200928;28;20104;-65
2021/12/23 00:40:35;;;;;;;164.50;58.75;;;;;;;;;;6199381;28;20054;-65
2021/12/23 00:43:36;;;;;;;165.45;62.63;;;;;;;;;;6199899;28;20052;-65
2021/12/23 00:46:37;;;;;;;156.10;60.55;;;;;;;;;;6200310;28;20125;-65
2021/12/23 00:49:37;;;;;;;173.82;64.28;;;;;;;;;;6200731;28;20048;-65
2021/12/23 00:52:40;;;;;;;172.40;63.88;;;;;;;;;;6196495;28;20781;-65
2021/12/23 00:55:40;;;;;;;160.80;65.35;;;;;;;;;;6200606;28;20061;-64
2021/12/23 00:58:41;;;;;;;162.32;63.03;;;;;;;;;;6201111;28;20465;-65
2021/12/23 01:01:42;;;;;;;174.27;67.55;;;;;;;;;;6199185;28;20045;-65
2021/12/23 01:04:43;;;;;;;180.18;67.28;;;;;;;;;;6200569;28;20046;-65
2021/12/23 01:07:43;;;;;;;176.65;67.40;;;;;;;;;;6200142;28;20057;-65
2021/12/23 01:10:44;;;;;;;174.02;68.45;;;;;;;;;;6197913;28;20581;-65
2021/12/23 01:14:01;;;;;;;178.80;65.13;;;;;;;;;;6196670;28;20045;-65
2021/12/23 01:17:23;;;;;;;173.85;63.55;;;;;;;;;;6197756;28;20408;-65
2021/12/23 01:20:31;;;;;;;172.55;62.15;;;;;;;;;;6197708;28;20419;-64
2021/12/23 01:23:38;;;;;;;172.45;67.82;;;;;;;;;;6204599;28;20080;-65
2021/12/23 01:26:40;;;;;;;183.38;68.72;;;;;;;;;;6204572;28;20073;-64
2021/12/23 01:29:41;;;;;;;181.80;70.00;;;;;;;;;;6215966;28;20772;-65
2021/12/23 01:32:41;;;;;;;182.50;66.07;;;;;;;;;;6217204;28;20046;-64
2021/12/23 01:35:45;;;;;;;192.52;72.40;;;;;;;;;;6215027;28;20735;-64
2021/12/23 01:38:45;;;;;;;178.88;64.45;;;;;;;;;;6217689;28;20140;-64
2021/12/23 01:41:46;;;;;;;157.48;63.47;;;;;;;;;;6217007;28;20092;-64
2021/12/23 01:44:46;;;;;;;158.43;61.95;;;;;;;;;;6209089;28;20560;-64
2021/12/23 01:47:47;;;;;;;157.70;59.33;;;;;;;;;;6201397;28;20116;-64
2021/12/23 01:50:48;;;;;;;139.88;57.88;;;;;;;;;;6204823;28;20073;-64
2021/12/23 01:53:49;;;;;;;147.27;56.00;;;;;;;;;;6201430;28;20050;-64
2021/12/23 01:56:50;;;;;;;155.23;61.22;;;;;;;;;;6203091;28;20137;-64
2021/12/23 01:59:51;;;;;;;172.80;65.40;;;;;;;;;;6204605;28;20085;-64
2021/12/23 02:02:53;;;;;;;168.95;62.83;;;;;;;;;;6205325;28;20063;-63
2021/12/23 02:05:54;;;;;;;;;;;;;;;;;;6201991;28;20629;-63
2021/12/23 02:08:54;;;;;;;151.73;55.63;;;;;;;;;;6202511;28;19932;-64
2021/12/23 02:11:55;;;;;;;152.23;58.40;;;;;;;;;;6205131;28;20118;-64
2021/12/23 02:14:56;;;;;;;152.43;57.90;;;;;;;;;;6199719;28;20050;-64
2021/12/23 02:17:56;;;;;;;155.60;56.95;;;;;;;;;;6208961;28;20046;-64
2021/12/23 02:20:58;;;;;;;158.18;59.28;;;;;;;;;;6196625;28;20412;-65
2021/12/23 02:23:59;;;;;;;168.40;62.23;;;;;;;;;;6203110;28;20189;-64
2021/12/23 02:26:59;;;;;;;166.80;61.70;;;;;;;;;;6201483;28;20779;-64
2021/12/23 02:30:05;;;;;;;161.70;59.92;;;;;;;;;;6199624;28;20046;-63
2021/12/23 02:33:07;;;;;;;167.07;63.17;;;;;;;;;;6200682;28;20076;-64
2021/12/23 02:36:09;;;;;;;;;;;;;;;;;;6199876;28;20141;-64
2021/12/23 02:39:10;;;;;;;155.48;57.92;;;;;;;;;;6201279;28;19925;-64
2021/12/23 02:42:11;;;;;;;168.60;60.92;;;;;;;;;;6207129;28;20107;-64
2021/12/23 02:45:11;;;;;;;170.32;60.50;;;;;;;;;;6196748;28;20457;-64
2021/12/23 02:48:15;;;;;;;169.70;61.80;;;;;;;;;;6206522;28;20076;-63
2021/12/23 02:51:16;;;;;;;165.57;59.58;;;;;;;;;;6204120;28;20042;-64
2021/12/23 02:54:17;;;;;;;157.80;57.92;;;;;;;;;;6198126;28;20050;-63
2021/12/23 02:57:17;;;;;;;159.43;62.20;;;;;;;;;;6200078;28;20133;-64
2021/12/23 03:00:19;;;;;;;165.45;63.13;;;;;;;;;;6200043;28;20461;-64
2021/12/23 03:03:20;;;;;;;169.57;63.33;;;;;;;;;;6213136;28;20057;-65
2021/12/23 03:06:22;;;;;;;176.20;62.42;;;;;;;;;;6211004;28;20057;-63
2021/12/23 03:09:23;;;;;;;189.77;68.03;;;;;;;;;;6200220;28;20220;-65
2021/12/23 03:12:23;;;;;;;206.60;68.53;;;;;;;;;;6208364;28;20481;-64
2021/12/23 03:15:25;;;;;;;188.82;68.72;;;;;;;;;;6205960;28;20692;-65
2021/12/23 03:18:27;;;;;;;195.43;67.60;;;;;;;;;;6201563;28;20140;-65
2021/12/23 03:21:27;;;;;;;173.88;62.97;;;;;;;;;;6204381;28;20092;-64
2021/12/23 03:24:28;;;;;;;185.52;68.15;;;;;;;;;;6207375;28;20413;-65
2021/12/23 03:27:29;;;;;;;175.27;65.70;;;;;;;;;;6209649;28;20465;-65
2021/12/23 03:30:29;;;;;;;170.80;65.20;;;;;;;;;;6208051;28;20137;-64
2021/12/23 03:33:31;;;;;;;189.23;70.18;;;;;;;;;;6203061;28;20137;-63
2021/12/23 03:36:32;;;;;;;186.30;67.47;;;;;;;;;;6201542;28;20046;-65
2021/12/23 03:39:33;;;;;;;179.15;68.90;;;;;;;;;;6205800;28;20053;-65
2021/12/23 03:42:34;;;;;;;210.43;79.85;;;;;;;;;;6207063;28;20046;-64
2021/12/23 03:45:34;;;;;;;210.38;76.07;;;;;;;;;;6204836;28;20054;-64
2021/12/23 03:48:35;;;;;;;190.50;70.28;;;;;;;;;;6205001;28;20050;-64
2021/12/23 03:51:36;;;;;;;201.82;76.35;;;;;;;;;;6205406;28;20049;-65
2021/12/23 03:54:36;;;;;;;215.93;78.47;;;;;;;;;;6210343;28;20058;-64
2021/12/23 03:57:37;;;;;;;202.63;78.03;;;;;;;;;;6210327;28;20108;-64
2021/12/23 04:00:38;;;;;;;207.35;78.25;;;;;;;;;;6204455;28;20043;-65
2021/12/23 04:03:39;;;;;;;243.40;82.05;;;;;;;;;;6205139;28;20098;-65
2021/12/23 04:06:40;;;;;;;249.98;86.28;;;;;;;;;;6202726;28;20176;-64
2021/12/23 04:09:40;;;;;;;226.23;76.63;;;;;;;;;;6209045;28;20627;-65
2021/12/23 04:12:42;;;;;;;219.10;78.93;;;;;;;;;;6204106;28;20050;-63
2021/12/23 04:15:43;;;;;;;218.05;75.28;;;;;;;;;;6199696;28;20081;-64
2021/12/23 04:18:46;;;;;;;199.27;71.32;;;;;;;;;;6203905;28;20042;-65
2021/12/23 04:21:46;;;;;;;242.13;81.93;;;;;;;;;;6198416;28;20042;-64
2021/12/23 04:24:47;;;;;;;282.20;86.85;;;;;;;;;;6201627;28;20058;-63
2021/12/23 04:27:51;;;;;;;243.25;81.60;;;;;;;;;;6200436;28;20149;-64
2021/12/23 04:30:53;;;;;;;248.77;81.80;;;;;;;;;;6206594;28;20050;-64
2021/12/23 04:33:54;;;;;;;247.68;78.72;;;;;;;;;;6208009;28;20054;-65
2021/12/23 04:36:55;;;;;;;213.90;72.32;;;;;;;;;;6207874;28;20042;-65
2021/12/23 04:39:55;;;;;;;225.45;74.30;;;;;;;;;;6207103;28;20104;-64
2021/12/23 04:42:57;;;;;;;230.48;75.05;;;;;;;;;;6207402;28;20061;-65
2021/12/23 04:45:57;;;;;;;290.38;87.97;;;;;;;;;;6205024;28;20042;-64
2021/12/23 04:48:59;;;;;;;281.08;90.78;;;;;;;;;;6211303;28;20504;-65
2021/12/23 04:52:00;;;;;;;264.23;86.90;;;;;;;;;;6201908;28;20070;-65
2021/12/23 04:55:00;;;;;;;241.90;79.20;;;;;;;;;;6204585;28;20057;-64
2021/12/23 04:58:01;;;;;;;247.27;81.55;;;;;;;;;;6208351;28;20046;-64
2021/12/23 05:01:03;;;;;;;246.98;81.47;;;;;;;;;;6205039;28;20144;-65
2021/12/23 05:04:04;;;;;;;228.35;78.70;;;;;;;;;;6205059;28;20464;-64
2021/12/23 05:07:05;;;;;;;225.85;80.85;;;;;;;;;;6202003;28;20128;-64
2021/12/23 05:10:08;;;;;;;210.90;78.47;;;;;;;;;;6204708;28;20076;-64
2021/12/23 05:13:09;;;;;;;237.18;80.60;;;;;;;;;;6203059;28;20061;-64
2021/12/23 05:16:09;;;;;;;219.00;80.10;;;;;;;;;;6199851;28;20125;-64
2021/12/23 05:19:10;;;;;;;217.63;76.82;;;;;;;;;;6198873;28;20403;-64
2021/12/23 05:22:10;;;;;;;224.90;80.68;;;;;;;;;;6204044;28;20516;-63
2021/12/23 05:25:11;;;;;;;256.60;83.68;;;;;;;;;;6204499;28;20077;-63
2021/12/23 05:28:13;;;;;;;248.73;80.30;;;;;;;;;;6201932;28;20046;-65
2021/12/23 05:31:14;;;;;;;232.52;82.18;;;;;;;;;;6200533;28;20051;-65
2021/12/23 05:34:16;;;;;;;229.02;79.35;;;;;;;;;;6202711;28;20416;-65
2021/12/23 05:37:16;;;;;;;223.23;75.60;;;;;;;;;;6202964;28;20042;-64
2021/12/23 05:40:21;;;;;;;209.95;73.45;;;;;;;;;;6205512;28;20132;-65
2021/12/23 05:43:22;;;;;;;205.63;73.47;;;;;;;;;;6202640;28;20469;-65
2021/12/23 05:46:23;;;;;;;184.02;61.85;;;;;;;;;;6199379;28;20046;-65
2021/12/23 05:49:24;;;;;;;175.93;66.00;;;;;;;;;;6198059;28;20123;-65
2021/12/23 05:52:25;;;;;;;192.07;65.57;;;;;;;;;;6197275;28;20156;-65
2021/12/23 05:55:26;;;;;;;187.35;65.20;;;;;;;;;;6205579;28;20125;-65
2021/12/23 05:58:26;;;;;;;176.05;64.20;;;;;;;;;;6200615;28;20046;-64
2021/12/23 06:01:27;;;;;;;191.57;64.53;;;;;;;;;;6201549;28;20396;-65
2021/12/23 06:04:28;;;;;;;215.13;76.50;;;;;;;;;;6202187;28;20478;-64
2021/12/23 06:07:28;;;;;;;228.10;81.43;;;;;;;;;;6203893;28;20155;-65
2021/12/23 06:10:29;;;;;;;218.70;74.63;;;;;;;;;;6202533;28;20046;-65
2021/12/23 06:13:29;;;;;;;213.15;74.75;;;;;;;;;;6201478;28;20485;-64
2021/12/23 06:16:30;;;;;;;225.68;76.00;;;;;;;;;;6203704;28;20057;-64
2021/12/23 06:19:30;;;;;;;205.85;72.30;;;;;;;;;;6197598;28;20061;-65
2021/12/23 06:22:34;;;;;;;224.57;77.63;;;;;;;;;;6196152;28;20053;-63
2021/12/23 06:25:35;;;;;;;250.85;80.15;;;;;;;;;;6200101;28;20137;-63
2021/12/23 06:28:36;;;;;;;281.55;86.43;;;;;;;;;;6199581;28;20072;-65
2021/12/23 06:31:36;;;;;;;311.90;91.80;;;;;;;;;;6205132;28;20050;-66
2021/12/23 06:34:37;;;;;;;291.42;89.10;;;;;;;;;;6197837;28;20048;-64
2021/12/23 06:37:38;;;;;;;387.35;106.15;;;;;;;;;;6204215;28;20046;-64
2021/12/23 06:40:41;;;;;;;309.70;96.57;;;;;;;;;;6204666;28;20554;-65
2021/12/23 06:43:42;;;;;;;302.00;93.03;;;;;;;;;;6203192;28;20053;-64
2021/12/23 06:46:42;;;;;;;274.02;86.03;;;;;;;;;;6206326;28;20540;-65
2021/12/23 06:49:43;;;;;;;287.90;89.78;;;;;;;;;;6210427;28;20054;-65
2021/12/23 06:52:44;;;;;;;298.60;91.28;;;;;;;;;;6208700;28;20140;-64
2021/12/23 06:55:45;;;;;;;321.40;99.00;;;;;;;;;;6204782;28;20050;-64
2021/12/23 06:58:49;;;;;;;368.98;102.45;;;;;;;;;;6212321;28;20468;-64
2021/12/23 07:01:49;;;;;;;340.98;99.10;;;;;;;;;;6218614;28;20509;-65
2021/12/23 07:04:50;;;;;;;327.88;102.20;;;;;;;;;;6216073;28;20042;-64
2021/12/23 07:10:52;;;;;;;277.88;89.55;;;;;;;;;;6207737;28;20136;-65
2021/12/23 07:13:53;;;;;;;322.67;102.80;;;;;;;;;;6212682;28;20140;-66
2021/12/23 07:16:53;;;;;;;253.82;86.03;;;;;;;;;;6207953;28;20486;-64
2021/12/23 07:19:55;;;;;;;323.42;101.40;;;;;;;;;;6207821;28;20046;-65
2021/12/23 07:22:56;;;;;;;285.40;92.45;;;;;;;;;;6213267;28;20196;-65
2021/12/23 07:25:57;;;;;;;296.85;95.20;;;;;;;;;;6211605;28;20120;-65
2021/12/23 07:28:57;;;;;;;317.33;102.57;;;;;;;;;;6208701;28;22128;-64
2021/12/23 07:31:58;;;;;;;314.75;98.53;;;;;;;;;;6201800;28;20516;-63
2021/12/23 07:34:59;;;;;;;301.92;101.38;;;;;;;;;;6205796;28;20054;-64
2021/12/23 07:38:01;;;;;;;349.90;106.78;;;;;;;;;;6204861;28;20137;-65
2021/12/23 07:41:02;;;;;;;313.40;105.97;;;;;;;;;;6206171;28;20474;-62
2021/12/23 07:44:05;;;;;;;258.55;89.50;;;;;;;;;;6214580;28;20050;-73
2021/12/23 07:47:06;;;;;;;264.73;92.80;;;;;;;;;;6208067;28;20104;-68
2021/12/23 07:50:07;;;;;;;274.92;93.22;;;;;;;;;;6207309;28;20053;-64
2021/12/23 07:53:07;;;;;;;265.30;91.93;;;;;;;;;;6213358;28;20136;-65
2021/12/23 07:56:08;;;;;;;244.80;87.90;;;;;;;;;;6208229;28;20096;-68
2021/12/23 07:59:08;;;;;;;254.25;87.38;;;;;;;;;;6204672;28;20516;-67
2021/12/23 08:02:09;;;;;;;268.10;92.00;;;;;;;;;;6206212;28;20366;-64
2021/12/23 08:05:10;;;;;;;280.02;103.10;;;;;;;;;;6201295;28;20129;-66
2021/12/23 08:08:11;;;;;;;308.38;103.70;;;;;;;;;;6214283;28;20050;-66
2021/12/23 08:11:12;;;;;;;250.90;90.55;;;;;;;;;;6202944;28;20105;-64
2021/12/23 08:14:13;;;;;;;256.42;88.60;;;;;;;;;;6203109;28;20469;-65
2021/12/23 08:17:13;;;;;;;302.60;102.40;;;;;;;;;;6203108;28;20041;-67
2021/12/23 08:20:15;;;;;;;265.42;91.18;;;;;;;;;;6200873;28;20048;-67
2021/12/23 08:23:16;;;;;;;283.70;94.45;;;;;;;;;;6201442;28;20073;-65
2021/12/23 08:26:19;;;;;;;263.50;91.10;;;;;;;;;;6206378;28;20065;-66
2021/12/23 08:29:21;;;;;;;347.35;120.22;;;;;;;;;;6210257;28;20449;-67
2021/12/23 08:32:22;;;;;;;445.98;140.35;;;;;;;;;;6207322;28;20517;-66
2021/12/23 08:35:23;;;;;;;424.80;133.48;;;;;;;;;;6200600;28;20448;-66
2021/12/23 08:38:23;;;;;;;608.50;208.02;;;;;;;;;;6205595;28;20144;-66
2021/12/23 08:41:24;;;;;;;566.10;197.93;;;;;;;;;;6205304;28;20047;-66
2021/12/23 08:44:25;;;;;;;337.40;132.70;;;;;;;;;;6211676;28;20421;-65
2021/12/23 08:47:25;;;;;;;314.08;125.13;;;;;;;;;;6205601;28;20069;-65
2021/12/23 08:50:30;;;;;;;250.25;100.60;;;;;;;;;;6206400;28;20557;-66
2021/12/23 08:53:30;;;;;;;227.38;90.63;;;;;;;;;;6207952;28;20049;-66
2021/12/23 08:56:31;;;;;;;248.80;98.30;;;;;;;;;;6202627;28;20458;-66
2021/12/23 08:59:32;;;;;;;243.15;101.68;;;;;;;;;;6206947;28;20081;-66
2021/12/23 09:02:33;;;;;;;235.45;89.00;;;;;;;;;;6202912;28;20096;-67
2021/12/23 09:05:36;;;;;;;198.38;74.07;;;;;;;;;;6201152;28;20046;-65
2021/12/23 09:08:39;;;;;;;192.48;71.68;;;;;;;;;;6203630;28;20867;-69
2021/12/23 09:11:39;;;;;;;202.30;76.45;;;;;;;;;;6202608;28;20144;-68
2021/12/23 09:14:40;;;;;;;198.70;77.90;;;;;;;;;;6200177;28;20046;-68
2021/12/23 09:17:41;;;;;;;180.48;67.07;;;;;;;;;;6203584;28;20042;-67
2021/12/23 09:20:41;;;;;;;168.02;66.30;;;;;;;;;;6204296;28;20056;-68
2021/12/23 09:23:42;;;;;;;230.40;83.95;;;;;;;;;;6208088;28;20057;-68
2021/12/23 09:26:59;;;;;;;245.43;88.85;;;;;;;;;;6206427;28;20046;-68
2021/12/23 09:33:19;;;;;;;324.70;119.00;;;;;;;;;;6202009;28;20045;-67
2021/12/23 09:36:20;;;;;;;320.70;108.18;;;;;;;;;;6205933;28;20077;-64
2021/12/23 09:39:22;;;;;;;277.75;90.50;;;;;;;;;;6211251;28;20053;-63
2021/12/23 09:42:25;;;;;;;250.43;87.20;;;;;;;;;;6213893;28;20125;-69
2021/12/23 09:45:27;;;;;;;237.38;83.95;;;;;;;;;;6217682;28;20315;-66
2021/12/23 09:48:28;;;;;;;248.27;83.85;;;;;;;;;;6215436;28;20096;-62
2021/12/23 09:51:32;;;;;;;275.52;91.07;;;;;;;;;;6215448;28;20144;-64
2021/12/23 09:54:37;;;;;;;200.10;66.88;;;;;;;;;;6212680;28;20137;-62
2021/12/23 09:57:38;;;;;;;196.77;69.45;;;;;;;;;;6209007;28;20478;-66
2021/12/23 10:00:45;;;;;;;267.27;89.25;;;;;;;;;;6214476;28;20056;-63
2021/12/23 10:03:46;;;;;;;271.20;92.65;;;;;;;;;;6214350;28;20047;-63
2021/12/23 10:06:48;;;;;;;243.07;83.30;;;;;;;;;;6212362;28;20437;-65
2021/12/23 10:10:05;;;;;;;185.75;65.65;;;;;;;;;;6205045;28;20141;-67
2021/12/23 10:27:47;;;;;;;155.68;57.15;;;;;;;;;;6217276;28;20395;-63
2021/12/23 10:30:38;;;;;;;151.93;54.03;;;;;;;;;;6212523;28;20046;-61
2021/12/23 10:37:05;;;;;;;;;;;;;;;;;;6215845;28;20045;-61
2021/12/23 10:37:23;;;;;;;114.82;44.95;;;;;;;;;;6213879;28;19931;-67
2021/12/23 10:40:27;;;;;;;;;;;;;;;;;;6211786;28;20038;-61
2021/12/23 10:43:51;;;;;;;122.50;46.78;;;;;;;;;;6211972;28;20270;-61
2021/12/23 10:46:52;;;;;;;133.85;53.67;;;;;;;;;;6211410;28;20197;-64
2021/12/23 10:49:59;;;;;;;107.05;43.33;;;;;;;;;;6200545;28;20046;-68
2021/12/23 10:53:12;;;;;;;114.00;45.45;;;;;;;;;;6213011;28;20045;-66
2021/12/23 10:59:35;;;;;;;;;;;;;;;;;;6212079;28;20042;-63
2021/12/23 11:02:37;;;;;;;116.07;46.40;;;;;;;;;;6210826;28;20058;-61
2021/12/23 11:05:54;;;;;;;122.07;45.17;;;;;;;;;;6212262;28;20050;-64
2021/12/23 11:43:13;;;;;;;185.30;65.90;;;;;;;;;;6203436;28;20047;-64
2021/12/23 11:46:49;;;;;;;191.80;67.82;;;;;;;;;;6212943;28;20512;-68
2021/12/23 11:49:51;;;;;;;236.40;77.80;;;;;;;;;;6219334;28;20041;-64
2021/12/23 11:52:51;;;;;;;189.25;67.15;;;;;;;;;;6219800;28;20572;-63
2021/12/23 11:55:53;;;;;;;145.98;55.90;;;;;;;;;;6221338;28;20502;-66
2021/12/23 11:58:57;;;;;;;132.13;50.50;;;;;;;;;;6217263;28;20398;-64
2021/12/23 12:01:58;;;;;;;146.18;55.58;;;;;;;;;;6211871;28;20390;-61
2021/12/23 12:05:03;;;;;;;137.38;53.90;;;;;;;;;;6211155;28;20080;-64
2021/12/23 12:08:13;;;;;;;133.30;51.85;;;;;;;;;;6211315;28;20705;-66
2021/12/23 12:11:21;;;;;;;167.38;65.90;;;;;;;;;;6216723;28;20073;-64
2021/12/23 12:14:34;;;;;;;139.93;54.78;;;;;;;;;;6219544;28;20080;-63
2021/12/23 12:17:37;;;;;;;128.52;52.67;;;;;;;;;;6216077;28;20448;-63
2021/12/23 12:20:52;;;;;;;138.95;55.83;;;;;;;;;;6213048;28;20046;-65
2021/12/23 12:24:13;;;;;;;147.80;59.28;;;;;;;;;;6211996;28;20061;-63
2021/12/23 12:27:14;;;;;;;169.13;68.32;;;;;;;;;;6219158;28;20050;-64
2021/12/23 12:30:17;;;;;;;165.02;71.30;;;;;;;;;;6218601;28;20484;-63
2021/12/23 12:33:18;;;;;;;149.02;61.22;;;;;;;;;;6216933;28;20073;-64
2021/12/23 12:36:19;;;;;;;161.40;70.32;;;;;;;;;;6217040;28;20042;-68
2021/12/23 12:39:25;;;;;;;141.23;58.85;;;;;;;;;;6216160;28;20050;-64
2021/12/23 12:42:35;;;;;;;110.90;51.35;;;;;;;;;;6216633;28;20124;-69
2021/12/23 12:45:36;;;;;;;113.18;51.65;;;;;;;;;;6214826;28;20050;-70
2021/12/23 12:49:30;;;;;;;122.47;54.95;;;;;;;;;;6209242;28;20909;-62
2021/12/23 12:52:37;;;;;;;119.22;52.38;;;;;;;;;;6210782;28;20049;-64
2021/12/23 12:55:37;;;;;;;123.05;47.92;;;;;;;;;;6214900;28;20409;-64
2021/12/23 12:58:39;;;;;;;125.90;48.95;;;;;;;;;;6214900;28;20136;-64
2021/12/23 13:01:50;;;;;;;110.03;47.70;;;;;;;;;;6214103;28;20069;-66
2021/12/23 13:05:04;;;;;;;112.00;50.40;;;;;;;;;;6216888;28;20681;-66
2021/12/23 13:08:37;;;;;;;115.72;51.65;;;;;;;;;;6204400;28;20401;-65
2021/12/23 13:11:44;;;;;;;113.28;46.33;;;;;;;;;;6214173;28;20136;-66
2021/12/23 13:14:55;;;;;;;104.93;46.45;;;;;;;;;;6216268;28;20365;-64
2021/12/23 13:18:09;;;;;;;108.07;48.63;;;;;;;;;;6217932;28;20096;-62
2021/12/23 13:21:09;;;;;;;106.68;48.45;;;;;;;;;;6214496;28;20052;-64
2021/12/23 13:24:12;;;;;;;122.25;55.88;;;;;;;;;;6219192;28;20085;-61
2021/12/23 13:27:12;;;;;;;116.47;50.75;;;;;;;;;;6217344;28;20057;-62
2021/12/23 13:30:13;;;;;;;127.30;53.13;;;;;;;;;;6210976;28;20430;-66
2021/12/23 13:33:13;;;;;;;106.85;42.05;;;;;;;;;;6216431;28;20042;-68
2021/12/23 13:36:22;;;;;;;108.20;44.40;;;;;;;;;;6214592;28;20057;-63
2021/12/23 13:39:28;;;;;;;234.10;69.47;;;;;;;;;;6217462;28;20054;-64
2021/12/23 13:42:29;;;;;;;296.60;86.22;;;;;;;;;;6209095;28;20056;-61
2021/12/23 13:45:30;;;;;;;219.77;69.13;;;;;;;;;;6218979;28;20042;-66
2021/12/23 13:48:31;;;;;;;275.73;96.00;;;;;;;;;;6216760;28;20409;-62
2021/12/23 13:51:35;;;;;;;197.80;75.55;;;;;;;;;;6214397;28;20081;-62
2021/12/23 13:54:39;;;;;;;124.82;56.30;;;;;;;;;;6211608;28;20046;-63
2021/12/23 13:57:43;;;;;;;184.93;64.88;;;;;;;;;;6213757;28;20042;-71
2021/12/23 14:00:43;;;;;;;377.55;106.50;;;;;;;;;;6215339;28;20045;-76
2021/12/23 14:03:44;;;;;;;568.60;165.07;;;;;;;;;;6213455;28;20100;-64
2021/12/23 14:06:45;;;;;;;195.63;68.28;;;;;;;;;;6213587;28;20463;-69
2021/12/23 14:10:14;;;;;;;120.75;53.85;;;;;;;;;;6216322;28;20077;-66
2021/12/23 14:13:17;;;;;;;122.20;55.47;;;;;;;;;;6214212;28;20499;-69
2021/12/23 14:16:19;;;;;;;108.30;49.90;;;;;;;;;;6216016;28;20402;-64
2021/12/23 14:19:48;;;;;;;117.20;51.80;;;;;;;;;;6214845;28;20050;-70
2021/12/23 14:26:10;;;;;;;105.35;47.38;;;;;;;;;;6211936;28;20049;-64
2021/12/23 14:29:14;;;;;;;115.63;48.67;;;;;;;;;;6214834;28;20042;-65
2021/12/23 14:32:15;;;;;;;110.07;44.28;;;;;;;;;;6215292;28;20076;-65
2021/12/23 14:35:28;;;;;;;112.45;47.92;;;;;;;;;;6217063;28;20041;-65
2021/12/23 14:38:32;;;;;;;110.70;46.03;;;;;;;;;;6205994;28;20080;-61
2021/12/23 14:41:43;;;;;;;110.43;47.30;;;;;;;;;;6204881;28;20430;-64
2021/12/23 14:44:45;;;;;;;98.60;40.50;;;;;;;;;;6206719;28;20108;-67
2021/12/23 14:48:14;;;;;;;102.95;41.83;;;;;;;;;;6203219;28;20124;-73
2021/12/23 14:51:25;;;;;;;98.50;39.85;;;;;;;;;;6202442;28;20034;-63
2021/12/23 14:54:25;;;;;;;98.70;42.15;;;;;;;;;;6205145;28;20077;-62
2021/12/23 14:57:32;;;;;;;96.90;41.50;;;;;;;;;;6203412;28;20572;-62
2021/12/23 15:00:42;;;;;;;102.03;42.58;;;;;;;;;;6204424;28;20065;-61
2021/12/23 15:04:05;;;;;;;109.82;44.05;;;;;;;;;;6208111;28;20057;-65
2021/12/23 15:07:13;;;;;;;109.95;44.70;;;;;;;;;;6209459;28;20097;-67
2021/12/23 15:10:44;;;;;;;107.20;46.00;;;;;;;;;;6206797;28;20092;-62
2021/12/23 15:13:46;;;;;;;122.90;50.25;;;;;;;;;;6207982;28;20096;-67
2021/12/23 15:17:01;;;;;;;136.52;55.40;;;;;;;;;;6211099;28;20046;-64
2021/12/23 15:20:17;;;;;;;105.15;44.92;;;;;;;;;;6208086;28;20057;-63
2021/12/23 15:23:39;;;;;;;108.90;46.80;;;;;;;;;;6210617;28;20057;-64
2021/12/23 15:26:48;;;;;;;111.43;46.92;;;;;;;;;;6209196;28;20153;-62
2021/12/23 15:29:52;;;;;;;121.25;49.58;;;;;;;;;;6208043;28;20081;-64
2021/12/23 15:32:52;;;;;;;131.80;52.15;;;;;;;;;;6208343;28;20524;-62
2021/12/23 15:35:53;;;;;;;152.40;62.47;;;;;;;;;;6210197;28;20058;-62
2021/12/23 15:38:54;;;;;;;167.55;67.95;;;;;;;;;;6207165;28;20076;-62
2021/12/23 15:41:55;;;;;;;143.25;56.10;;;;;;;;;;6210030;28;20610;-60
2021/12/23 15:44:56;;;;;;;146.27;57.20;;;;;;;;;;6209383;28;20459;-60
2021/12/23 15:47:57;;;;;;;132.00;52.42;;;;;;;;;;6206331;28;20057;-62
2021/12/23 15:51:00;;;;;;;358.40;131.40;;;;;;;;;;6209512;28;20060;-62
2021/12/23 15:54:02;;;;;;;462.27;156.63;;;;;;;;;;6209679;28;20342;-62
2021/12/23 15:57:04;;;;;;;432.58;138.15;;;;;;;;;;6207834;28;20439;-63
2021/12/23 16:00:06;;;;;;;412.85;134.80;;;;;;;;;;6207306;28;20060;-62
2021/12/23 16:03:07;;;;;;;406.88;142.75;;;;;;;;;;6209158;28;20580;-60
2021/12/23 16:09:26;;;;;;;194.93;89.13;;;;;;;;;;6202852;28;20056;-61
2021/12/23 16:12:30;;;;;;;140.93;75.53;;;;;;;;;;6211188;28;20050;-61
2021/12/23 16:15:31;;;;;;;75.43;38.85;;;;;;;;;;6206897;28;20939;-63
2021/12/23 16:18:31;;;;;;;75.47;33.95;;;;;;;;;;6204912;28;20082;-62
2021/12/23 16:21:32;;;;;;;75.47;31.50;;;;;;;;;;6209007;28;20049;-63
2021/12/23 16:24:33;;;;;;;70.05;28.52;;;;;;;;;;6210082;28;20248;-65
2021/12/23 16:27:37;;;;;;;58.55;24.42;;;;;;;;;;6206531;28;20564;-64
2021/12/23 16:30:37;;;;;;;63.20;24.33;;;;;;;;;;6208649;28;20054;-64
2021/12/23 16:33:39;;;;;;;53.53;23.33;;;;;;;;;;6209393;28;20057;-64
2021/12/23 16:36:42;;;;;;;52.85;21.65;;;;;;;;;;6209275;28;20168;-64
2021/12/23 16:39:46;;;;;;;53.38;20.77;;;;;;;;;;6205487;28;20046;-65
2021/12/23 16:42:47;;;;;;;41.40;17.23;;;;;;;;;;6207838;28;20089;-65
2021/12/23 16:45:50;;;;;;;42.85;18.60;;;;;;;;;;6207043;28;20095;-64
2021/12/23 16:48:51;;;;;;;40.33;17.25;;;;;;;;;;6201974;28;20062;-69
2021/12/23 16:51:52;;;;;;;36.22;16.98;;;;;;;;;;6204333;28;21096;-67
2021/12/23 16:54:58;;;;;;;34.58;15.95;;;;;;;;;;6204839;28;20070;-67
2021/12/23 16:58:00;;;;;;;37.50;16.08;;;;;;;;;;6201969;28;20132;-68
2021/12/23 17:01:01;;;;;;;;;;;;;;;;;;6204373;28;20081;-67
2021/12/23 17:04:02;;;;;;;41.17;18.67;;;;;;;;;;6205860;28;20675;-67
2021/12/23 17:07:03;;;;;;;31.45;13.93;;;;;;;;;;6206242;28;21204;-65
2021/12/23 17:10:04;;;;;;;29.25;13.23;;;;;;;;;;6204525;28;20111;-71
2021/12/23 17:13:05;;;;;;;28.38;13.10;;;;;;;;;;6205196;28;20050;-72
2021/12/23 17:16:08;;;;;;;31.90;13.32;;;;;;;;;;6206796;28;20717;-71
2021/12/23 17:19:12;;;;;;;26.52;12.00;;;;;;;;;;6202021;28;20054;-65
2021/12/23 17:22:13;;;;;;;29.20;13.45;;;;;;;;;;6205479;28;20053;-61
2021/12/23 17:25:14;;;;;;;29.77;12.43;;;;;;;;;;6204297;28;20061;-62
2021/12/23 17:28:18;;;;;;;31.42;13.57;;;;;;;;;;6203422;28;20405;-63
2021/12/23 17:31:19;;;;;;;30.73;13.55;;;;;;;;;;6206149;28;20144;-66
2021/12/23 17:34:20;;;;;;;31.23;12.23;;;;;;;;;;6205202;28;20057;-67
2021/12/23 17:37:21;;;;;;;31.63;14.23;;;;;;;;;;6205336;28;20100;-63
2021/12/23 17:40:23;;;;;;;28.13;14.52;;;;;;;;;;6204127;28;20493;-64
2021/12/23 17:43:24;;;;;;;26.90;13.82;;;;;;;;;;6207219;28;20046;-65
2021/12/23 17:46:25;;;;;;;26.88;12.32;;;;;;;;;;6207387;28;20509;-67
2021/12/23 17:49:26;;;;;;;27.67;11.55;;;;;;;;;;6203124;28;20053;-61
2021/12/23 17:52:27;;;;;;;25.95;11.40;;;;;;;;;;6206817;28;20049;-64
2021/12/23 17:55:28;;;;;;;27.92;12.85;;;;;;;;;;6206214;28;20115;-63
2021/12/23 17:58:29;;;;;;;28.42;12.23;;;;;;;;;;6204257;28;20042;-64
2021/12/23 18:01:30;;;;;;;30.17;13.45;;;;;;;;;;6206605;28;20046;-66
2021/12/23 18:04:32;;;;;;;63.13;22.67;;;;;;;;;;6206685;28;20066;-63
2021/12/23 18:07:33;;;;;;;29.60;12.73;;;;;;;;;;6204985;28;20088;-65
2021/12/23 18:10:33;;;;;;;27.48;13.18;;;;;;;;;;6204220;28;20057;-67
2021/12/23 18:13:34;;;;;;;32.22;14.82;;;;;;;;;;6207764;28;20551;-69
2021/12/23 18:16:36;;;;;;;36.53;18.30;;;;;;;;;;6207225;28;20428;-67
2021/12/23 18:19:37;;;;;;;39.80;17.40;;;;;;;;;;6203091;28;20064;-68
2021/12/23 18:22:38;;;;;;;29.20;13.57;;;;;;;;;;6206315;28;20053;-67
2021/12/23 18:25:39;;;;;;;33.35;14.95;;;;;;;;;;6205463;28;20058;-66
2021/12/23 18:28:40;;;;;;;32.63;14.18;;;;;;;;;;6202950;28;20107;-63
2021/12/23 18:31:40;;;;;;;32.00;14.70;;;;;;;;;;6206433;28;20050;-68
2021/12/23 18:34:46;;;;;;;34.13;14.65;;;;;;;;;;6204877;28;20540;-68
2021/12/23 18:37:53;;;;;;;33.65;15.40;;;;;;;;;;6205780;28;20052;-74
2021/12/23 18:40:54;;;;;;;32.63;13.88;;;;;;;;;;6211951;28;20061;-68
2021/12/23 18:43:59;;;;;;;56.03;24.73;;;;;;;;;;6215586;28;20087;-65
2021/12/23 18:47:00;;;;;;;43.58;19.17;;;;;;;;;;6214371;28;20725;-65
2021/12/23 18:50:01;;;;;;;32.58;15.55;;;;;;;;;;6208930;28;20058;-65